Карточка аэропорта USSS

Внимание!
Информация на этой странице в стадии наполнения.
Если вы не увидели какой-то информации, или заметили неточность - пожалуйста сообщите нам!
Спасибо!
Команда RU-STAFF
Название аэропортаКольцово
Название аэропорта (англ.)Koltsovo
Превышение766 ft. (233.5 m.)
Координаты56°44.586', 60°48.186'
Высота перехода4000ft
Эшелон переходаQNH>=1013hPa:FL50; QNH 1013hPa-977hPa:FL60; QNH<=977hpa:FL70
Коды ответчика5520-5557
Зона ОрВДЕкатеринбург РПИ (USSV)
Данные METARUSSS 290830Z 32004MPS 270V040 CAVOK 12/M01 Q1015 R26L/010060 R26R/290040 NOSIG RMK QFE741/0988
Проноз погоды (TAF)USSS 290752Z 2909/3009 34003G14MPS 9999 -SHRA BKN016CB FM291500 04003G10MPS 6000 -SHRA BKN011CB FM300400 12003G12MPS 9999 BKN030
NOTAMshow/hide NOTAM
AWOS   TABLE

Информация о ВПП

ВПП Длина ВПП (м.) Покрытие Курс ВПП Частота ILS
08L3004Асфальтобетон75111.7
08R3026Бетон79109.9
26R3004Асфальтобетон255110.5
26L3026Бетон259109.5

Диспетчерские позиции

Позывной Наименование органа УВД Частота
USSS_R_APPКольцово-Круг118.7
USSS_GNDКольцово-Руление119.0
USSSFM1Машина сопровождения119.000
USSS_TWRКольцово-Старт124.3
USSS_APPКольцово-Подход125.9
USSS_ATIS_APPКольцово АТИС127.850
USSV_FSS_CTRКольцово Транзит131.900



Спутниковое изображение